createdAt,value
2023-04-13T00:02:17.183Z,94551.00
2023-04-13T00:06:22.740Z,94578.00
2023-04-13T00:10:25.798Z,94583.00
2023-04-13T00:14:33.862Z,94585.00
2023-04-13T00:18:37.037Z,94578.00
2023-04-13T00:22:42.185Z,94582.00
2023-04-13T00:26:45.043Z,94586.00
2023-04-13T00:30:47.961Z,94594.00
2023-04-13T00:34:51.443Z,94591.00
2023-04-13T00:38:57.282Z,94585.00
2023-04-13T00:43:02.021Z,94584.00
2023-04-13T00:47:05.602Z,94592.00
2023-04-13T00:51:09.484Z,94582.00
2023-04-13T00:55:14.894Z,94590.00
2023-04-13T00:59:17.954Z,94583.00
2023-04-13T01:03:22.040Z,94591.00
2023-04-13T01:07:28.938Z,94568.00
2023-04-13T01:11:39.493Z,94575.00
2023-04-13T01:15:46.759Z,94575.00
2023-04-13T01:19:57.240Z,94582.00
2023-04-13T01:24:16.976Z,94576.00
2023-04-13T01:28:23.192Z,94566.00
2023-04-13T01:32:27.150Z,94575.00
2023-04-13T01:36:30.439Z,94562.00
2023-04-13T01:40:36.917Z,94575.00
2023-04-13T01:44:42.389Z,94574.00
2023-04-13T01:48:48.210Z,94573.00
2023-04-13T01:53:17.311Z,94585.00
2023-04-13T01:57:22.341Z,94590.00
2023-04-13T02:01:27.281Z,94592.00
2023-04-13T02:05:30.148Z,94580.00
2023-04-13T02:09:33.197Z,94593.00
2023-04-13T02:13:36.072Z,94598.00
2023-04-13T02:17:41.897Z,94592.00
2023-04-13T02:21:44.853Z,94603.00
2023-04-13T02:25:48.362Z,94595.00
2023-04-13T02:29:52.623Z,94600.00
2023-04-13T02:33:57.557Z,94617.00
2023-04-13T02:38:00.771Z,94634.00
2023-04-13T02:42:04.345Z,94629.00
2023-04-13T02:46:09.403Z,94626.00
2023-04-13T02:50:17.188Z,94618.00
2023-04-13T02:54:28.694Z,94623.00
2023-04-13T02:58:32.726Z,94617.00
2023-04-13T03:02:40.094Z,94629.00
2023-04-13T03:06:45.991Z,94618.00
2023-04-13T03:10:49.079Z,94618.00
2023-04-13T03:14:52.127Z,94609.00
2023-04-13T03:18:58.067Z,94607.00
2023-04-13T03:23:04.757Z,94583.00
2023-04-13T03:27:11.602Z,94580.00
2023-04-13T03:31:22.245Z,94576.00
2023-04-13T03:35:27.908Z,94582.00
2023-04-13T03:39:34.372Z,94584.00
2023-04-13T03:43:37.456Z,94588.00
2023-04-13T03:47:44.973Z,94609.00
2023-04-13T03:51:48.220Z,94609.00
2023-04-13T03:55:53.081Z,94612.00
2023-04-13T03:59:56.315Z,94603.00
2023-04-13T04:04:16.700Z,94597.00
2023-04-13T04:08:20.426Z,94597.00
2023-04-13T04:12:25.925Z,94596.00
2023-04-13T04:16:28.892Z,94607.00
2023-04-13T04:20:40.363Z,94602.00
2023-04-13T04:24:45.356Z,94620.00
2023-04-13T04:28:50.570Z,94613.00
2023-04-13T04:32:57.298Z,94603.00
2023-04-13T04:37:17.852Z,94616.00
2023-04-13T04:41:27.499Z,94604.00
2023-04-13T04:45:38.356Z,94603.00
2023-04-13T04:49:42.791Z,94604.00
2023-04-13T04:53:45.773Z,94618.00
2023-04-13T04:57:49.850Z,94615.00
2023-04-13T05:01:56.171Z,94607.00
2023-04-13T05:05:59.158Z,94615.00
2023-04-13T05:10:07.439Z,94616.00
2023-04-13T05:14:14.373Z,94608.00
2023-04-13T05:18:18.776Z,94615.00
2023-04-13T05:22:22.169Z,94608.00
2023-04-13T05:26:34.212Z,94612.00
2023-04-13T05:30:45.318Z,94623.00
2023-04-13T05:34:49.829Z,94627.00
2023-04-13T05:38:57.986Z,94623.00
2023-04-13T05:43:03.149Z,94638.00
2023-04-13T05:47:10.055Z,94634.00
2023-04-13T05:51:15.544Z,94642.00
2023-04-13T05:55:21.911Z,94639.00
2023-04-13T05:59:32.085Z,94656.00
2023-04-13T06:03:37.142Z,94645.00
2023-04-13T06:07:43.513Z,94658.00
2023-04-13T06:11:46.555Z,94658.00
2023-04-13T06:15:49.365Z,94670.00
2023-04-13T06:19:52.176Z,94677.00
2023-04-13T06:23:56.355Z,94683.00
2023-04-13T06:28:09.982Z,94684.00
2023-04-13T06:32:17.770Z,94679.00
2023-04-13T06:36:21.035Z,94680.00
2023-04-13T06:40:25.871Z,94685.00
2023-04-13T06:44:39.615Z,94682.00
2023-04-13T06:48:42.809Z,94685.00
2023-04-13T06:52:47.676Z,94692.00
2023-04-13T06:56:53.100Z,94684.00
2023-04-13T07:00:56.147Z,94683.00
2023-04-13T07:05:00.535Z,94683.00
2023-04-13T07:09:05.911Z,94675.00
2023-04-13T07:13:10.603Z,94678.00
2023-04-13T07:17:13.974Z,94676.00
2023-04-13T07:21:16.877Z,94684.00
2023-04-13T07:25:35.103Z,94688.00
2023-04-13T07:29:39.681Z,94694.00
2023-04-13T07:33:47.069Z,94683.00
2023-04-13T07:37:53.732Z,94689.00
2023-04-13T07:41:58.017Z,94688.00
2023-04-13T07:46:31.175Z,94694.00
2023-04-13T07:50:35.207Z,94698.00
2023-04-13T07:54:38.313Z,94690.00
2023-04-13T07:58:44.265Z,94693.00
2023-04-13T08:02:48.762Z,94695.00
2023-04-13T08:06:56.256Z,94699.00
2023-04-13T08:10:59.126Z,94693.00
2023-04-13T08:15:02.164Z,94693.00
2023-04-13T08:19:07.171Z,94704.00
2023-04-13T08:23:14.551Z,94713.00
2023-04-13T08:27:17.452Z,94716.00
2023-04-13T08:31:21.881Z,94720.00
2023-04-13T08:35:34.123Z,94703.00
2023-04-13T08:39:37.791Z,94700.00
2023-04-13T08:43:41.810Z,94696.00
2023-04-13T08:47:45.609Z,94689.00
2023-04-13T08:51:52.086Z,94696.00
2023-04-13T08:55:57.590Z,94696.00
2023-04-13T09:00:01.098Z,94710.00
2023-04-13T09:04:09.114Z,94706.00
2023-04-13T09:08:17.004Z,94692.00
2023-04-13T09:12:22.446Z,94689.00
2023-04-13T09:16:25.544Z,94695.00
2023-04-13T09:20:31.843Z,94701.00
2023-04-13T09:24:41.979Z,94689.00
2023-04-13T09:28:53.684Z,94680.00
2023-04-13T09:33:07.937Z,94689.00
2023-04-13T09:37:13.890Z,94672.00
2023-04-13T09:41:19.001Z,94679.00
2023-04-13T09:45:21.963Z,94676.00
2023-04-13T09:49:25.610Z,94673.00
2023-04-13T09:53:30.032Z,94677.00
2023-04-13T09:57:34.280Z,94672.00
2023-04-13T10:01:38.530Z,94661.00
2023-04-13T10:05:58.099Z,94653.00
2023-04-13T10:10:02.741Z,94656.00
2023-04-13T10:14:13.045Z,94658.00
2023-04-13T10:18:27.818Z,94656.00
2023-04-13T10:22:31.388Z,94649.00
2023-04-13T10:26:35.883Z,94642.00
2023-04-13T10:30:50.895Z,94645.00
2023-04-13T10:34:54.169Z,94652.00
2023-04-13T10:38:57.152Z,94655.00
2023-04-13T10:43:00.300Z,94626.00
2023-04-13T10:47:06.100Z,94619.00
2023-04-13T10:51:09.259Z,94634.00
2023-04-13T10:55:14.602Z,94643.00
2023-04-13T10:59:17.602Z,94640.00
2023-04-13T11:03:22.191Z,94633.00
2023-04-13T11:07:25.926Z,94642.00
2023-04-13T11:11:29.950Z,94646.00
2023-04-13T11:15:34.145Z,94646.00
2023-04-13T11:19:50.230Z,94650.00
2023-04-13T11:23:53.901Z,94654.00
2023-04-13T11:27:58.666Z,94642.00
2023-04-13T11:32:02.023Z,94641.00
2023-04-13T11:36:07.325Z,94640.00
2023-04-13T11:40:14.793Z,94644.00
2023-04-13T11:44:18.481Z,94644.00
2023-04-13T11:48:22.148Z,94632.00
2023-04-13T11:52:27.134Z,94628.00
2023-04-13T11:56:30.935Z,94624.00
2023-04-13T12:00:34.968Z,94631.00
2023-04-13T12:04:40.958Z,94626.00
2023-04-13T12:08:49.584Z,94631.00
2023-04-13T12:13:16.507Z,94627.00
2023-04-13T12:17:38.446Z,94632.00
2023-04-13T12:21:52.689Z,94633.00
2023-04-13T12:25:58.169Z,94630.00
2023-04-13T12:30:04.150Z,94637.00
2023-04-13T12:34:08.470Z,94643.00
2023-04-13T12:38:11.229Z,94645.00
2023-04-13T12:42:15.629Z,94654.00
2023-04-13T12:46:18.514Z,94658.00
2023-04-13T12:50:21.374Z,94653.00
2023-04-13T12:54:24.161Z,94651.00
2023-04-13T12:58:28.349Z,94650.00
2023-04-13T13:02:31.849Z,94652.00
2023-04-13T13:06:35.113Z,94642.00
2023-04-13T13:10:38.440Z,94642.00
2023-04-13T13:14:42.713Z,94643.00
2023-04-13T13:18:50.903Z,94640.00
2023-04-13T13:23:05.362Z,94644.00
2023-04-13T13:31:16.182Z,94637.00
2023-04-13T13:35:19.010Z,94632.00
2023-04-13T13:39:22.858Z,94632.00
2023-04-13T13:43:25.669Z,94639.00
2023-04-13T13:47:29.872Z,94641.00
2023-04-13T13:51:33.303Z,94642.00
2023-04-13T13:55:37.919Z,94649.00
2023-04-13T13:59:40.714Z,94648.00
2023-04-13T14:03:45.050Z,94633.00
2023-04-13T14:07:47.883Z,94648.00
2023-04-13T14:11:51.321Z,94644.00
2023-04-13T14:15:54.180Z,94621.00
2023-04-13T14:19:58.384Z,94626.00
2023-04-13T14:24:01.279Z,94638.00
2023-04-13T14:28:04.174Z,94630.00
2023-04-13T14:32:07.335Z,94653.00
2023-04-13T14:36:14.974Z,94664.00
2023-04-13T14:40:21.691Z,94673.00
2023-04-13T14:44:25.688Z,94650.00
2023-04-13T14:48:28.478Z,94641.00
2023-04-13T14:52:32.920Z,94628.00
2023-04-13T14:56:35.739Z,94620.00
2023-04-13T15:00:41.778Z,94627.00
2023-04-13T15:04:44.674Z,94620.00
2023-04-13T15:08:48.877Z,94611.00
2023-04-13T15:12:51.700Z,94623.00
2023-04-13T15:16:54.546Z,94639.00
2023-04-13T15:20:57.350Z,94642.00
2023-04-13T15:25:01.510Z,94649.00
2023-04-13T15:29:04.271Z,94648.00
2023-04-13T15:33:07.163Z,94664.00
2023-04-13T15:37:10.119Z,94663.00
2023-04-13T15:41:14.304Z,94664.00
2023-04-13T15:45:17.185Z,94659.00
2023-04-13T15:49:19.960Z,94669.00
2023-04-13T15:53:23.392Z,94648.00
2023-04-13T15:57:28.736Z,94645.00
2023-04-13T16:01:45.139Z,94652.00
2023-04-13T16:05:49.985Z,94656.00
2023-04-13T16:09:56.295Z,94653.00
2023-04-13T16:14:07.681Z,94666.00
2023-04-13T16:18:10.599Z,94665.00
2023-04-13T16:22:13.477Z,94658.00
2023-04-13T16:26:16.299Z,94658.00
2023-04-13T16:30:21.501Z,94662.00
2023-04-13T16:34:26.543Z,94662.00
2023-04-13T16:38:29.732Z,94667.00
2023-04-13T16:42:32.542Z,94664.00
2023-04-13T16:46:39.321Z,94664.00
2023-04-13T16:50:42.189Z,94676.00
2023-04-13T16:54:45.094Z,94693.00
2023-04-13T16:58:48.326Z,94695.00
2023-04-13T17:02:52.606Z,94685.00
2023-04-13T17:07:01.632Z,94680.00
2023-04-13T17:11:07.046Z,94693.00
2023-04-13T17:15:11.067Z,94689.00
2023-04-13T17:19:15.576Z,94694.00
2023-04-13T17:23:18.363Z,94692.00
2023-04-13T17:27:21.201Z,94701.00
2023-04-13T17:31:24.031Z,94693.00
2023-04-13T17:35:28.230Z,94680.00
2023-04-13T17:39:31.040Z,94681.00
2023-04-13T17:43:34.175Z,94683.00
2023-04-13T17:47:37.084Z,94671.00
2023-04-13T17:51:41.265Z,94682.00
2023-04-13T17:55:44.105Z,94693.00
2023-04-13T17:59:47.187Z,94699.00
2023-04-13T18:03:50.047Z,94698.00
2023-04-13T18:07:54.362Z,94696.00
2023-04-13T18:11:57.198Z,94705.00
2023-04-13T18:16:00.172Z,94697.00
2023-04-13T18:20:03.376Z,94700.00
2023-04-13T18:24:08.037Z,94701.00
2023-04-13T18:28:11.074Z,94701.00
2023-04-13T18:32:16.842Z,94703.00
2023-04-13T18:36:19.748Z,94715.00
2023-04-13T18:40:24.239Z,94705.00
2023-04-13T18:44:27.334Z,94720.00
2023-04-13T18:48:31.025Z,94711.00
2023-04-13T18:52:33.910Z,94723.00
2023-04-13T18:56:38.172Z,94720.00
2023-04-13T19:00:41.023Z,94718.00
2023-04-13T19:04:44.120Z,94725.00
2023-04-13T19:08:47.224Z,94720.00
2023-04-13T19:12:51.417Z,94711.00
2023-04-13T19:16:54.718Z,94710.00
2023-04-13T19:20:59.856Z,94726.00
2023-04-13T19:25:02.743Z,94733.00
2023-04-13T19:29:07.251Z,94745.00
2023-04-13T19:33:10.406Z,94759.00
2023-04-13T19:37:13.361Z,94756.00
2023-04-13T19:41:16.570Z,94749.00
2023-04-13T19:45:20.881Z,94753.00
2023-04-13T19:49:23.700Z,94746.00
2023-04-13T19:53:26.607Z,94751.00
2023-04-13T19:57:29.445Z,94748.00
2023-04-13T20:01:34.327Z,94741.00
2023-04-13T20:05:38.238Z,94726.00
2023-04-13T20:09:41.058Z,94742.00
2023-04-13T20:13:46.858Z,94737.00
2023-04-13T20:17:52.804Z,94716.00
2023-04-13T20:21:55.616Z,94727.00
2023-04-13T20:25:58.544Z,94727.00
2023-04-13T20:30:01.646Z,94721.00
2023-04-13T20:34:09.467Z,94732.00
2023-04-13T20:38:13.909Z,94720.00
2023-04-13T20:42:18.554Z,94740.00
2023-04-13T20:46:21.762Z,94735.00
2023-04-13T20:50:27.541Z,94739.00
2023-04-13T20:54:30.597Z,94746.00
2023-04-13T20:58:33.711Z,94747.00
2023-04-13T21:02:36.770Z,94735.00
2023-04-13T21:06:41.219Z,94756.00
2023-04-13T21:10:44.604Z,94748.00
2023-04-13T21:14:47.531Z,94721.00
2023-04-13T21:18:50.494Z,94727.00
2023-04-13T21:22:54.786Z,94736.00
2023-04-13T21:26:57.812Z,94729.00
2023-04-13T21:31:00.670Z,94722.00
2023-04-13T21:35:03.746Z,94720.00
2023-04-13T21:39:08.693Z,94718.00
2023-04-13T21:43:11.573Z,94709.00
2023-04-13T21:47:14.493Z,94704.00
2023-04-13T21:51:17.502Z,94705.00
2023-04-13T21:55:21.877Z,94702.00
2023-04-13T21:59:27.209Z,94704.00
2023-04-13T22:03:30.433Z,94694.00
2023-04-13T22:07:42.449Z,94689.00
2023-04-13T22:11:47.357Z,94681.00
2023-04-13T22:15:50.386Z,94670.00
2023-04-13T22:19:53.305Z,94690.00
2023-04-13T22:23:56.137Z,94692.00
2023-04-13T22:28:00.343Z,94682.00
2023-04-13T22:32:03.209Z,94693.00
2023-04-13T22:36:07.200Z,94683.00
2023-04-13T22:40:10.850Z,94684.00
2023-04-13T22:44:15.113Z,94698.00
2023-04-13T22:48:17.981Z,94697.00
2023-04-13T22:52:20.965Z,94703.00
2023-04-13T22:56:23.912Z,94700.00
2023-04-13T23:00:28.413Z,94705.00
2023-04-13T23:04:31.591Z,94703.00
2023-04-13T23:08:34.568Z,94702.00
2023-04-13T23:12:37.452Z,94692.00
2023-04-13T23:16:41.752Z,94700.00
2023-04-13T23:20:44.745Z,94693.00
2023-04-13T23:24:47.622Z,94696.00
2023-04-13T23:28:50.541Z,94693.00
2023-04-13T23:32:55.806Z,94704.00
2023-04-13T23:36:58.883Z,94700.00
2023-04-13T23:41:01.860Z,94694.00
2023-04-13T23:45:05.276Z,94701.00
2023-04-13T23:49:09.505Z,94700.00
2023-04-13T23:53:13.029Z,94684.00
2023-04-13T23:57:16.223Z,94698.00
